Time,TemperatureF,DewpointF,PressureIn,WindDirection,WindDirectionDegrees,WindSpeedMPH,WindSpeedGustMPH,Humidity,HourlyPrecipIn,Conditions,Clouds,dailyrainin,SolarRadiationWatts/m^2,SoftwareType,DateUTC
2013-04-12 00:00:00,32.4,31.6,29.64,ENE,69,1.5,4.6,97,0.00,-SN,,0.23,0.0,WeatherDisplay:10.37,2013-04-12 05:00:00,
2013-04-12 00:05:00,32.4,31.6,29.64,East,84,2.2,3.6,97,0.00,-SN,,0.00,0.0,WeatherDisplay:10.37,2013-04-12 05:05:00,
2013-04-12 00:10:00,32.4,31.6,29.64,ENE,57,1.6,3.6,97,0.00,-SN,,0.00,0.0,WeatherDisplay:10.37,2013-04-12 05:10:00,
2013-04-12 00:15:00,32.4,31.6,29.64,NE,49,1.2,2.4,97,0.00,-SN,,0.00,0.0,WeatherDisplay:10.37,2013-04-12 05:15:00,
2013-04-12 00:20:00,32.2,31.4,29.64,ENE,59,0.0,2.3,97,0.00,-SN,,0.00,0.0,WeatherDisplay:10.37,2013-04-12 05:20:00,
2013-04-12 00:25:00,32.2,31.4,29.64,ENE,67,3.0,6.0,97,0.00,-SN,,0.00,0.0,WeatherDisplay:10.37,2013-04-12 05:25:00,
2013-04-12 00:30:00,32.2,31.4,29.64,ENE,59,1.6,2.4,97,0.00,-SN,,0.00,0.0,WeatherDisplay:10.37,2013-04-12 05:30:00,
2013-04-12 00:35:00,32.2,31.4,29.64,ENE,59,2.2,3.6,97,0.00,-SN,,0.00,0.0,WeatherDisplay:10.37,2013-04-12 05:35:00,
2013-04-12 00:40:00,32.2,31.4,29.64,ENE,69,2.1,3.6,97,0.00,-SN,,0.00,0.0,WeatherDisplay:10.37,2013-04-12 05:40:00,
2013-04-12 00:45:00,32.2,31.4,29.63,ENE,63,0.0,1.2,97,0.00,-SN,,0.00,0.0,WeatherDisplay:10.37,2013-04-12 05:45:00,
2013-04-12 00:50:00,32.2,31.4,29.63,East,80,2.5,6.0,97,0.00,-SN,,0.00,0.0,WeatherDisplay:10.37,2013-04-12 05:50:00,
2013-04-12 00:55:00,32.2,31.4,29.63,NE,48,1.9,3.6,97,0.00,-SN,,0.00,0.0,WeatherDisplay:10.37,2013-04-12 05:55:00,
2013-04-12 01:00:00,32.2,31.4,29.62,NE,48,0.6,2.4,97,0.00,BKN,,0.00,0.0,WeatherDisplay:10.37,2013-04-12 06:00:00,
2013-04-12 01:05:00,32.1,31.3,29.62,NE,55,2.4,2.4,97,0.00,BKN,,0.00,0.0,WeatherDisplay:10.37,2013-04-12 06:05:00,
2013-04-12 01:10:00,32.1,31.3,29.62,East,84,0.0,4.6,97,0.00,BKN,,0.00,0.0,WeatherDisplay:10.37,2013-04-12 06:10:00,
2013-04-12 01:15:00,32.1,31.3,29.62,ENE,78,0.6,1.2,97,0.00,BKN,,0.00,0.0,WeatherDisplay:10.37,2013-04-12 06:15:00,
2013-04-12 01:20:00,32.1,31.3,29.62,ENE,78,0.0,0.0,97,0.00,OVC,,0.00,0.0,WeatherDisplay:10.37,2013-04-12 06:20:00,
2013-04-12 01:25:00,32.1,31.3,29.62,ENE,78,2.0,3.6,97,0.00,OVC,,0.00,0.0,WeatherDisplay:10.37,2013-04-12 06:25:00,
2013-04-12 01:30:00,32.1,31.3,29.62,NE,49,0.0,1.2,97,0.00,OVC,,0.00,0.0,WeatherDisplay:10.37,2013-04-12 06:30:00,
2013-04-12 01:35:00,32.1,31.3,29.62,NE,44,0.0,0.0,97,0.00,OVC,,0.00,0.0,WeatherDisplay:10.37,2013-04-12 06:35:00,
2013-04-12 01:40:00,32.1,31.3,29.62,NE,44,1.9,3.6,97,0.00,OVC,,0.00,0.0,WeatherDisplay:10.37,2013-04-12 06:40:00,
2013-04-12 01:45:00,31.9,31.1,29.61,NE,44,0.0,0.0,97,0.00,OVC,,0.00,0.0,WeatherDisplay:10.37,2013-04-12 06:45:00,
2013-04-12 01:50:00,31.9,31.1,29.61,ENE,60,0.0,0.0,97,0.00,OVC,,0.00,0.0,WeatherDisplay:10.37,2013-04-12 06:50:00,
2013-04-12 01:55:00,31.9,31.1,29.61,NE,56,3.0,4.8,97,0.00,OVC,,0.00,0.0,WeatherDisplay:10.37,2013-04-12 06:55:00,
2013-04-12 02:00:00,31.9,31.1,29.61,NE,56,1.1,2.4,97,0.00,OVC,,0.00,0.0,WeatherDisplay:10.37,2013-04-12 07:00:00,
2013-04-12 02:05:00,31.8,31.0,29.61,NE,56,2.4,3.6,97,0.00,OVC,,0.00,0.0,WeatherDisplay:10.37,2013-04-12 07:05:00,
2013-04-12 02:10:00,31.8,31.0,29.61,NE,56,0.7,2.4,97,0.00,OVC,,0.00,0.0,WeatherDisplay:10.37,2013-04-12 07:10:00,
2013-04-12 02:15:00,31.8,31.0,29.60,NE,56,0.4,2.4,97,0.00,OVC,,0.00,0.0,WeatherDisplay:10.37,2013-04-12 07:15:00,
2013-04-12 02:20:00,31.8,31.0,29.60,NE,56,0.0,0.0,97,0.00,OVC,,0.00,0.0,WeatherDisplay:10.37,2013-04-12 07:20:00,
2013-04-12 02:25:00,31.8,31.0,29.60,NE,56,2.0,3.6,97,0.00,OVC,,0.00,0.0,WeatherDisplay:10.37,2013-04-12 07:25:00,
2013-04-12 02:30:00,31.8,31.0,29.59,NE,56,0.4,2.4,97,0.00,OVC,,0.00,0.0,WeatherDisplay:10.37,2013-04-12 07:30:00,
2013-04-12 02:35:00,31.8,31.0,29.59,NE,56,0.0,0.0,97,0.00,OVC,,0.00,0.0,WeatherDisplay:10.37,2013-04-12 07:35:00,
2013-04-12 02:40:00,31.8,31.0,29.59,NE,56,0.0,1.2,97,0.00,-SN,,0.00,0.0,WeatherDisplay:10.37,2013-04-12 07:40:00,
2013-04-12 02:45:00,31.8,31.0,29.59,NE,56,0.0,0.0,97,0.00,-SN,,0.00,0.0,WeatherDisplay:10.37,2013-04-12 07:45:00,
2013-04-12 02:50:00,31.8,31.0,29.59,NE,56,0.1,1.2,97,0.00,-SN,,0.00,0.0,WeatherDisplay:10.37,2013-04-12 07:50:00,
2013-04-12 02:55:00,31.8,31.0,29.59,NE,56,0.0,0.0,97,0.00,-SN,,0.00,0.0,WeatherDisplay:10.37,2013-04-12 07:55:00,
2013-04-12 03:00:00,31.8,31.0,29.59,NE,56,0.0,0.0,97,0.00,-SN,,0.00,0.0,WeatherDisplay:10.37,2013-04-12 08:00:00,
2013-04-12 03:05:00,31.8,31.3,29.59,NE,56,0.0,0.0,98,0.00,-SN,,0.00,0.0,WeatherDisplay:10.37,2013-04-12 08:05:00,
2013-04-12 03:10:00,31.8,31.0,29.59,NE,56,0.0,0.0,97,0.00,-SN,,0.00,0.0,WeatherDisplay:10.37,2013-04-12 08:10:00,
2013-04-12 03:15:00,31.8,31.0,29.59,NE,56,0.0,0.0,97,0.00,-SN,,0.00,0.0,WeatherDisplay:10.37,2013-04-12 08:15:00,
2013-04-12 03:20:00,31.8,31.3,29.59,NE,56,0.0,1.2,98,0.00,-SN,,0.00,0.0,WeatherDisplay:10.37,2013-04-12 08:20:00,
2013-04-12 03:25:00,31.8,31.0,29.59,NE,56,0.0,0.0,97,0.00,-SN,,0.00,0.0,WeatherDisplay:10.37,2013-04-12 08:25:00,
2013-04-12 03:30:00,31.8,31.3,29.59,NE,56,0.0,0.0,98,0.00,-SN,,0.00,0.0,WeatherDisplay:10.37,2013-04-12 08:30:00,
2013-04-12 03:35:00,31.8,31.3,29.59,NE,56,0.0,0.0,98,0.00,-SN,,0.00,0.0,WeatherDisplay:10.37,2013-04-12 08:35:00,
2013-04-12 03:40:00,31.8,31.3,29.59,NE,56,0.0,0.0,98,0.00,-SN,,0.00,0.0,WeatherDisplay:10.37,2013-04-12 08:40:00,
2013-04-12 03:45:00,31.8,31.3,29.59,NE,56,0.0,0.0,98,0.00,-SN,,0.00,0.0,WeatherDisplay:10.37,2013-04-12 08:45:00,
2013-04-12 03:50:00,31.8,31.3,29.59,NE,56,0.0,0.0,98,0.00,-SN,,0.00,0.0,WeatherDisplay:10.37,2013-04-12 08:50:00,
2013-04-12 03:55:00,31.8,31.3,29.59,NE,56,0.0,0.0,98,0.00,-SN,,0.00,0.0,WeatherDisplay:10.37,2013-04-12 08:55:00,
2013-04-12 04:00:00,31.8,31.0,29.59,NE,56,0.0,0.0,97,0.00,-SN,,0.00,0.0,WeatherDisplay:10.37,2013-04-12 09:00:00,
2013-04-12 04:05:00,31.6,31.1,29.59,NE,56,0.0,0.0,98,0.00,-SN,,0.00,0.0,WeatherDisplay:10.37,2013-04-12 09:05:00,
2013-04-12 04:10:00,31.6,31.1,29.59,NE,56,0.0,0.0,98,0.00,-SN,,0.00,0.0,WeatherDisplay:10.37,2013-04-12 09:10:00,
2013-04-12 04:15:00,31.6,31.1,29.58,NE,56,0.0,0.0,98,0.00,-SN,,0.00,0.0,WeatherDisplay:10.37,2013-04-12 09:15:00,
2013-04-12 04:20:00,31.6,31.1,29.58,NE,56,0.0,0.0,98,0.00,-SN,,0.00,0.0,WeatherDisplay:10.37,2013-04-12 09:20:00,
2013-04-12 04:25:00,31.6,31.1,29.58,NE,56,0.0,0.0,98,0.00,-SN,,0.00,0.0,WeatherDisplay:10.37,2013-04-12 09:25:00,
2013-04-12 04:30:00,31.6,31.1,29.58,NE,56,0.0,0.0,98,0.00,-SN,,0.00,0.0,WeatherDisplay:10.37,2013-04-12 09:30:00,
2013-04-12 04:35:00,31.5,31.0,29.58,NE,56,0.0,1.2,98,0.00,-SN,,0.00,0.0,WeatherDisplay:10.37,2013-04-12 09:35:00,
2013-04-12 04:40:00,31.5,31.0,29.58,NE,56,0.2,1.2,98,0.00,-SN,,0.00,0.0,WeatherDisplay:10.37,2013-04-12 09:40:00,
2013-04-12 04:45:00,31.5,31.0,29.58,NE,56,0.5,4.6,98,0.00,-SN,,0.00,0.0,WeatherDisplay:10.37,2013-04-12 09:45:00,
2013-04-12 04:50:00,31.5,31.0,29.58,NE,56,2.0,2.4,98,0.00,-SN,,0.00,0.0,WeatherDisplay:10.37,2013-04-12 09:50:00,
2013-04-12 04:56:00,31.5,31.0,29.58,NE,56,0.0,0.0,98,0.00,-SN,,0.00,0.0,WeatherDisplay:10.37,2013-04-12 09:56:00,
2013-04-12 05:01:00,31.5,31.0,29.58,NE,56,0.0,0.0,98,0.00,-SN,,0.00,0.0,WeatherDisplay:10.37,2013-04-12 10:01:00,
2013-04-12 05:06:00,31.5,31.0,29.58,NE,56,0.0,1.2,98,0.00,-SN,,0.00,0.0,WeatherDisplay:10.37,2013-04-12 10:06:00,
2013-04-12 05:11:00,31.5,31.0,29.58,NE,56,0.3,2.4,98,0.00,-SN,,0.00,0.0,WeatherDisplay:10.37,2013-04-12 10:11:00,
2013-04-12 05:16:00,31.5,31.0,29.58,NE,56,1.3,3.6,98,0.00,-SN,,0.00,0.0,WeatherDisplay:10.37,2013-04-12 10:16:00,
2013-04-12 05:21:00,31.5,31.0,29.58,NE,56,0.0,0.0,98,0.00,-SN,,0.00,0.0,WeatherDisplay:10.37,2013-04-12 10:21:00,
2013-04-12 05:26:00,31.5,31.0,29.58,NE,56,0.0,0.0,98,0.00,-SN,,0.00,0.0,WeatherDisplay:10.37,2013-04-12 10:26:00,
2013-04-12 05:31:00,31.5,31.0,29.58,NE,56,0.0,0.0,98,0.00,-SN,,0.00,0.0,WeatherDisplay:10.37,2013-04-12 10:31:00,
2013-04-12 05:36:00,31.5,31.0,29.58,NE,56,0.5,2.4,98,0.00,-SN,,0.00,0.0,WeatherDisplay:10.37,2013-04-12 10:36:00,
2013-04-12 05:41:00,31.5,31.0,29.58,NE,56,0.0,0.0,98,0.00,-SN,,0.00,0.0,WeatherDisplay:10.37,2013-04-12 10:41:00,
2013-04-12 05:46:00,31.5,31.0,29.58,NE,56,0.1,1.2,98,0.00,-SN,,0.00,0.0,WeatherDisplay:10.37,2013-04-12 10:46:00,
2013-04-12 05:52:00,31.3,30.8,29.58,NE,56,0.1,1.2,98,0.00,-SN,,0.00,0.0,WeatherDisplay:10.37,2013-04-12 10:52:00,
2013-04-12 05:57:00,31.3,30.8,29.58,NE,56,0.0,0.0,98,0.00,-SN,,0.00,0.0,WeatherDisplay:10.37,2013-04-12 10:57:00,
2013-04-12 06:02:00,31.3,30.8,29.58,NE,56,0.5,1.2,98,0.00,-SN,,0.00,0.0,WeatherDisplay:10.37,2013-04-12 11:02:00,
2013-04-12 06:07:00,31.3,30.8,29.58,NE,56,0.0,0.0,98,0.00,-SN,,0.00,0.0,WeatherDisplay:10.37,2013-04-12 11:07:00,
2013-04-12 06:12:00,31.3,30.8,29.58,NE,56,0.0,0.0,98,0.00,-SN,,0.00,0.0,WeatherDisplay:10.37,2013-04-12 11:12:00,
2013-04-12 06:17:00,31.3,30.8,29.58,NE,56,0.0,0.0,98,0.00,-SN,,0.00,0.0,WeatherDisplay:10.37,2013-04-12 11:17:00,
2013-04-12 06:22:00,31.2,30.7,29.58,NE,56,0.0,0.0,98,0.00,-SN,,0.00,0.0,WeatherDisplay:10.37,2013-04-12 11:22:00,
2013-04-12 06:27:00,31.2,30.7,29.58,NE,56,0.4,1.2,98,0.00,-SN,,0.00,0.0,WeatherDisplay:10.37,2013-04-12 11:27:00,
2013-04-12 06:32:00,31.2,30.7,29.58,NE,56,0.0,1.2,98,0.00,-SN,,0.00,0.0,WeatherDisplay:10.37,2013-04-12 11:32:00,
2013-04-12 06:37:00,31.2,30.7,29.58,NE,56,0.0,0.0,98,0.00,-SN,,0.00,0.0,WeatherDisplay:10.37,2013-04-12 11:37:00,
2013-04-12 06:42:00,31.2,30.7,29.58,NE,56,0.0,0.0,98,0.00,-SN,,0.00,0.0,WeatherDisplay:10.37,2013-04-12 11:42:00,
2013-04-12 06:47:00,31.2,30.7,29.59,NE,56,0.6,2.4,98,0.00,-SN,,0.00,0.0,WeatherDisplay:10.37,2013-04-12 11:47:00,
2013-04-12 06:52:00,31.2,30.7,29.59,NE,56,0.0,0.0,98,0.00,-SN,,0.00,0.0,WeatherDisplay:10.37,2013-04-12 11:52:00,
2013-04-12 06:57:00,31.2,30.7,29.59,NE,56,0.0,1.0,98,0.00,-SN,,0.00,5.0,WeatherDisplay:10.37,2013-04-12 11:57:00,
2013-04-12 07:03:00,31.2,30.7,29.59,NE,56,0.7,1.2,98,0.00,-SN,,0.00,9.0,WeatherDisplay:10.37,2013-04-12 12:03:00,
2013-04-12 07:08:00,31.2,30.7,29.59,NE,56,0.0,1.2,98,0.00,-SN,,0.00,11.0,WeatherDisplay:10.37,2013-04-12 12:08:00,
2013-04-12 07:13:00,31.2,30.7,29.59,NE,56,0.1,1.2,98,0.00,-SN,,0.00,14.0,WeatherDisplay:10.37,2013-04-12 12:13:00,
2013-04-12 07:18:00,31.2,30.7,29.59,NE,56,0.4,1.2,98,0.00,-SN,,0.00,19.0,WeatherDisplay:10.37,2013-04-12 12:18:00,
2013-04-12 07:23:00,31.2,30.7,29.59,NE,56,0.2,1.2,98,0.00,-SN,,0.00,25.0,WeatherDisplay:10.37,2013-04-12 12:23:00,
2013-04-12 07:28:00,31.2,30.7,29.59,NE,56,0.1,1.2,98,0.00,-SN,,0.00,25.0,WeatherDisplay:10.37,2013-04-12 12:28:00,
2013-04-12 07:33:00,31.2,30.7,29.59,NE,56,0.6,2.4,98,0.00,-SN,,0.00,25.0,WeatherDisplay:10.37,2013-04-12 12:33:00,
2013-04-12 07:38:00,31.2,30.7,29.59,NE,56,0.0,0.0,98,0.00,-SN,,0.00,26.0,WeatherDisplay:10.37,2013-04-12 12:38:00,
2013-04-12 07:43:00,31.2,30.7,29.59,NE,56,0.0,0.0,98,0.00,-SN,,0.00,32.0,WeatherDisplay:10.37,2013-04-12 12:43:00,
2013-04-12 07:48:00,31.2,30.7,29.60,NE,56,0.0,0.0,98,0.00,-SN,,0.00,35.0,WeatherDisplay:10.37,2013-04-12 12:48:00,
2013-04-12 07:53:00,31.3,30.8,29.60,NE,56,0.2,1.2,98,0.00,-SN,,0.00,33.0,WeatherDisplay:10.37,2013-04-12 12:53:00,
2013-04-12 07:58:00,31.2,30.7,29.60,NW,311,0.0,2.3,98,0.00,-SN,,0.00,35.0,WeatherDisplay:10.37,2013-04-12 12:58:00,
2013-04-12 08:03:00,31.3,30.8,29.60,NW,311,0.0,0.0,98,0.00,-SN,,0.00,32.0,WeatherDisplay:10.37,2013-04-12 13:03:00,
2013-04-12 08:08:00,31.3,30.8,29.60,NW,311,0.0,1.2,98,0.00,-SN,,0.00,32.0,WeatherDisplay:10.37,2013-04-12 13:08:00,
2013-04-12 08:13:00,31.3,30.8,29.60,NW,311,1.3,2.4,98,0.00,-SN,,0.00,32.0,WeatherDisplay:10.37,2013-04-12 13:13:00,
2013-04-12 08:18:00,31.3,30.8,29.61,NW,311,0.0,0.0,98,0.00,-SN,,0.00,33.0,WeatherDisplay:10.37,2013-04-12 13:18:00,
2013-04-12 08:23:00,31.3,30.8,29.61,North,349,0.1,1.2,98,0.00,-SN,,0.00,35.0,WeatherDisplay:10.37,2013-04-12 13:23:00,
2013-04-12 08:28:00,31.3,30.8,29.61,North,349,0.0,0.0,98,0.00,-SN,,0.00,39.0,WeatherDisplay:10.37,2013-04-12 13:28:00,
2013-04-12 08:33:00,31.5,31.0,29.61,North,349,0.1,1.2,98,0.00,-SN,,0.00,44.0,WeatherDisplay:10.37,2013-04-12 13:33:00,
2013-04-12 08:38:00,31.5,31.0,29.61,North,349,1.0,2.4,98,0.00,-SN,,0.00,47.0,WeatherDisplay:10.37,2013-04-12 13:38:00,
2013-04-12 08:43:00,31.5,31.0,29.61,North,349,0.0,0.0,98,0.00,-SN,,0.00,53.0,WeatherDisplay:10.37,2013-04-12 13:43:00,
2013-04-12 08:48:00,31.6,31.4,29.61,North,349,0.0,1.2,99,0.00,-SN,,0.00,60.0,WeatherDisplay:10.37,2013-04-12 13:48:00,
2013-04-12 08:53:00,31.6,31.4,29.61,North,349,0.6,2.4,99,0.00,-SN,,0.00,69.0,WeatherDisplay:10.37,2013-04-12 13:53:00,
2013-04-12 08:58:00,31.6,31.4,29.61,North,349,0.4,2.4,99,0.00,-SN,,0.00,79.0,WeatherDisplay:10.37,2013-04-12 13:58:00,
2013-04-12 09:03:00,31.8,31.6,29.61,NNW,346,0.0,0.0,99,0.00,-SN,,0.00,100.0,WeatherDisplay:10.37,2013-04-12 14:03:00,
2013-04-12 09:08:00,31.9,31.7,29.61,NNW,331,0.9,2.4,99,0.00,-SN,,0.00,111.0,WeatherDisplay:10.37,2013-04-12 14:08:00,
2013-04-12 09:13:00,31.9,31.7,29.61,NW,311,1.3,2.4,99,0.00,-SN,,0.00,121.0,WeatherDisplay:10.37,2013-04-12 14:13:00,
2013-04-12 09:18:00,32.1,31.9,29.62,NW,311,0.0,0.0,99,0.00,-SN,,0.00,134.0,WeatherDisplay:10.37,2013-04-12 14:18:00,
2013-04-12 09:23:00,32.2,32.0,29.62,NW,311,0.0,2.3,99,0.00,OVC,,0.00,144.0,WeatherDisplay:10.37,2013-04-12 14:23:00,
2013-04-12 09:28:00,32.4,32.2,29.62,NW,311,0.0,0.0,99,0.00,OVC,,0.00,169.0,WeatherDisplay:10.37,2013-04-12 14:28:00,
2013-04-12 09:33:00,32.4,32.2,29.63,NW,311,0.0,1.2,99,0.00,OVC,,0.00,190.0,WeatherDisplay:10.37,2013-04-12 14:33:00,
2013-04-12 09:38:00,32.5,32.3,29.63,NNW,336,0.0,2.3,99,0.00,OVC,,0.00,214.0,WeatherDisplay:10.37,2013-04-12 14:38:00,
2013-04-12 09:43:00,32.5,32.3,29.63,NNW,342,0.1,1.2,99,0.00,OVC,,0.00,255.0,WeatherDisplay:10.37,2013-04-12 14:43:00,
2013-04-12 09:48:00,32.5,32.3,29.63,NW,304,3.2,3.6,99,0.00,OVC,,0.00,250.0,WeatherDisplay:10.37,2013-04-12 14:48:00,
2013-04-12 09:53:00,32.4,31.9,29.63,WNW,296,2.0,3.6,98,0.00,OVC,,0.00,332.0,WeatherDisplay:10.37,2013-04-12 14:53:00,
2013-04-12 09:58:00,32.7,32.5,29.63,WNW,302,0.0,1.2,99,0.00,OVC,,0.00,383.0,WeatherDisplay:10.37,2013-04-12 14:58:00,
2013-04-12 10:03:00,32.9,32.7,29.63,WNW,302,0.0,0.0,99,0.00,OVC,,0.00,329.0,WeatherDisplay:10.37,2013-04-12 15:03:00,
2013-04-12 10:08:00,33.1,32.9,29.63,WNW,302,0.0,0.0,99,0.00,OVC,,0.01,260.0,WeatherDisplay:10.37,2013-04-12 15:08:00,
2013-04-12 10:13:00,33.1,32.6,29.63,NNW,327,0.0,0.0,98,0.01,RA,,0.01,223.0,WeatherDisplay:10.37,2013-04-12 15:13:00,
2013-04-12 10:18:00,33.1,32.6,29.64,NNW,327,0.0,0.0,98,0.02,RA,,0.02,241.0,WeatherDisplay:10.37,2013-04-12 15:18:00,
2013-04-12 10:23:00,32.9,32.4,29.64,NW,309,0.7,3.6,98,0.02,RA,,0.02,267.0,WeatherDisplay:10.37,2013-04-12 15:23:00,
2013-04-12 10:28:00,32.8,32.3,29.64,NW,309,0.4,2.4,98,0.03,RA,,0.03,320.0,WeatherDisplay:10.37,2013-04-12 15:28:00,
2013-04-12 10:33:00,32.9,32.4,29.64,NW,309,1.8,2.4,98,0.03,RA,,0.03,229.0,WeatherDisplay:10.37,2013-04-12 15:33:00,
2013-04-12 10:38:00,32.9,32.4,29.64,NNW,340,0.6,3.6,98,0.05,RA,,0.05,287.0,WeatherDisplay:10.37,2013-04-12 15:38:00,
2013-04-12 10:43:00,32.9,32.1,29.64,NW,324,0.4,2.4,97,0.05,RA,,0.05,322.0,WeatherDisplay:10.37,2013-04-12 15:43:00,
2013-04-12 10:48:00,33.1,32.3,29.64,NW,313,2.0,3.6,97,0.05,BKN,,0.06,294.0,WeatherDisplay:10.37,2013-04-12 15:48:00,
2013-04-12 10:53:00,33.2,32.4,29.64,NW,313,0.0,1.2,97,0.06,RA,,0.06,223.0,WeatherDisplay:10.37,2013-04-12 15:53:00,
2013-04-12 10:58:00,33.2,32.4,29.64,NW,313,0.8,3.6,97,0.07,RA,,0.07,257.0,WeatherDisplay:10.37,2013-04-12 15:58:00,
2013-04-12 11:03:00,33.2,32.4,29.65,WNW,284,0.0,1.2,97,0.07,RA,,0.07,267.0,WeatherDisplay:10.37,2013-04-12 16:03:00,
2013-04-12 11:08:00,33.2,32.4,29.65,NW,312,0.0,4.6,97,0.07,SCT,,0.07,343.0,WeatherDisplay:10.37,2013-04-12 16:08:00,
2013-04-12 11:13:00,33.2,32.2,29.65,WNW,301,0.0,3.5,96,0.07,RA,,0.08,429.0,WeatherDisplay:10.37,2013-04-12 16:13:00,
2013-04-12 11:18:00,33.4,32.4,29.65,NW,320,2.8,4.8,96,0.06,RA,,0.09,388.0,WeatherDisplay:10.37,2013-04-12 16:18:00,
2013-04-12 11:23:00,33.5,32.5,29.65,West,278,2.0,6.0,96,0.07,RA,,0.09,330.0,WeatherDisplay:10.37,2013-04-12 16:23:00,
2013-04-12 11:28:00,33.4,32.1,29.65,WNW,297,1.0,2.4,95,0.06,RA,,0.09,260.0,WeatherDisplay:10.37,2013-04-12 16:28:00,
2013-04-12 11:33:00,33.4,32.1,29.66,WNW,300,1.4,3.6,95,0.06,SCT,,0.09,381.0,WeatherDisplay:10.37,2013-04-12 16:33:00,
2013-04-12 11:38:00,33.4,32.1,29.66,NW,309,2.5,4.8,95,0.06,RA,,0.10,367.0,WeatherDisplay:10.37,2013-04-12 16:38:00,
2013-04-12 11:44:00,33.4,32.1,29.66,NNW,329,3.2,6.0,95,0.06,RA,,0.12,316.0,WeatherDisplay:10.37,2013-04-12 16:44:00,
2013-04-12 11:49:00,33.4,32.1,29.66,WNW,294,0.0,3.5,95,0.06,RA,,0.12,299.0,WeatherDisplay:10.37,2013-04-12 16:49:00,
2013-04-12 11:54:00,33.4,32.1,29.66,WNW,288,2.4,4.8,95,0.06,BKN,,0.12,290.0,WeatherDisplay:10.37,2013-04-12 16:54:00,
2013-04-12 11:59:00,33.5,32.2,29.66,WNW,285,2.4,3.6,95,0.05,BKN,,0.12,279.0,WeatherDisplay:10.37,2013-04-12 16:59:00,
2013-04-12 12:04:00,33.5,32.2,29.66,NW,315,0.0,1.2,95,0.06,RA,,0.13,269.0,WeatherDisplay:10.37,2013-04-12 17:04:00,
2013-04-12 12:09:00,34.0,32.7,29.66,NW,315,0.0,0.0,95,0.06,RA,,0.13,290.0,WeatherDisplay:10.37,2013-04-12 17:09:00,
2013-04-12 12:14:00,34.1,32.6,29.66,NW,313,1.9,3.6,94,0.05,BKN,,0.13,381.0,WeatherDisplay:10.37,2013-04-12 17:14:00,
2013-04-12 12:19:00,34.1,32.6,29.66,West,278,3.4,3.6,94,0.06,RA,,0.14,302.0,WeatherDisplay:10.37,2013-04-12 17:19:00,
2013-04-12 12:24:00,34.0,32.2,29.66,WNW,300,1.4,2.4,93,0.05,RA,,0.14,334.0,WeatherDisplay:10.37,2013-04-12 17:24:00,
2013-04-12 12:29:00,34.1,32.3,29.66,NW,313,1.8,4.8,93,0.05,BKN,,0.14,209.0,WeatherDisplay:10.37,2013-04-12 17:29:00,
2013-04-12 12:34:00,34.3,32.5,29.66,NW,314,1.9,2.4,93,0.05,BKN,,0.14,186.0,WeatherDisplay:10.37,2013-04-12 17:34:00,
2013-04-12 12:39:00,34.1,32.0,29.66,NW,315,0.0,0.0,92,0.03,BKN,,0.14,223.0,WeatherDisplay:10.37,2013-04-12 17:39:00,
2013-04-12 12:44:00,34.1,32.0,29.66,NW,315,0.4,2.3,92,0.02,-SN,,0.14,392.0,WeatherDisplay:10.37,2013-04-12 17:44:00,
2013-04-12 12:49:00,34.3,32.2,29.66,NW,324,1.8,4.8,92,0.02,-SN,,0.14,366.0,WeatherDisplay:10.37,2013-04-12 17:49:00,
2013-04-12 12:54:00,34.4,32.3,29.66,NW,324,0.0,0.0,92,0.03,-SN,,0.15,239.0,WeatherDisplay:10.37,2013-04-12 17:54:00,
2013-04-12 13:01:00,34.7,32.3,29.67,NW,324,1.4,3.6,91,0.03,-SN,,0.15,236.0,WeatherDisplay:10.37,2013-04-12 18:01:00,
2013-04-12 13:06:00,34.9,32.5,29.67,NW,324,0.5,1.2,91,0.02,-SN,,0.15,367.0,WeatherDisplay:10.37,2013-04-12 18:06:00,
2013-04-12 13:12:00,35.2,32.6,29.67,NW,309,2.1,3.6,90,0.02,-SN,,0.15,345.0,WeatherDisplay:10.37,2013-04-12 18:12:00,
2013-04-12 13:17:00,35.3,32.4,29.67,WSW,255,0.9,4.8,89,0.02,-SN,,0.15,274.0,WeatherDisplay:10.37,2013-04-12 18:17:00,
2013-04-12 13:23:00,35.5,32.3,29.67,WNW,298,4.2,4.8,88,0.01,SCT,,0.16,241.0,WeatherDisplay:10.37,2013-04-12 18:23:00,
2013-04-12 13:28:00,35.3,31.8,29.67,West,277,4.6,4.8,87,0.02,RA,,0.16,276.0,WeatherDisplay:10.37,2013-04-12 18:28:00,
2013-04-12 14:26:00,35.0,32.1,29.70,West,261,0.8,9.6,89,0.00,OVC,,0.16,151.0,WeatherDisplay:10.37,2013-04-12 19:26:00,
2013-04-12 14:27:00,35.0,31.8,29.70,NW,306,2.9,9.6,88,0.00,OVC,,0.16,149.0,WeatherDisplay:10.37,2013-04-12 19:27:00,
2013-04-12 14:32:00,35.0,31.8,29.70,WNW,283,2.0,3.6,88,0.00,OVC,,0.16,151.0,WeatherDisplay:10.37,2013-04-12 19:32:00,
2013-04-12 14:37:00,35.0,31.5,29.70,WNW,302,3.0,4.8,87,0.00,OVC,,0.16,127.0,WeatherDisplay:10.37,2013-04-12 19:37:00,
2013-04-12 14:42:00,35.2,31.7,29.70,WSW,254,0.0,3.5,87,0.00,OVC,,0.16,104.0,WeatherDisplay:10.37,2013-04-12 19:42:00,
2013-04-12 14:47:00,35.5,31.7,29.71,West,269,4.0,4.8,86,0.00,OVC,,0.16,100.0,WeatherDisplay:10.37,2013-04-12 19:47:00,
2013-04-12 14:52:00,35.3,31.5,29.71,WNW,294,5.9,16.1,86,0.00,OVC,,0.16,135.0,WeatherDisplay:10.37,2013-04-12 19:52:00,
2013-04-12 14:57:00,35.0,30.9,29.71,West,279,4.4,8.1,85,0.00,OVC,,0.16,160.0,WeatherDisplay:10.37,2013-04-12 19:57:00,
2013-04-12 15:02:00,35.2,31.1,29.71,West,273,1.7,10.8,85,0.00,OVC,,0.16,199.0,WeatherDisplay:10.37,2013-04-12 20:02:00,
2013-04-12 15:07:00,35.3,31.2,29.71,West,269,6.9,9.6,85,0.00,OVC,,0.16,186.0,WeatherDisplay:10.37,2013-04-12 20:07:00,
2013-04-12 15:12:00,35.3,31.2,29.71,WSW,250,6.8,10.8,85,0.00,OVC,,0.16,199.0,WeatherDisplay:10.37,2013-04-12 20:12:00,
2013-04-12 15:17:00,34.9,30.8,29.72,WNW,290,6.2,9.6,85,0.00,OVC,,0.16,174.0,WeatherDisplay:10.37,2013-04-12 20:17:00,
2013-04-12 15:22:00,35.0,31.2,29.72,NW,311,1.0,3.6,86,0.00,OVC,,0.16,213.0,WeatherDisplay:10.37,2013-04-12 20:22:00,
2013-04-12 15:27:00,35.2,31.4,29.72,West,278,0.5,3.5,86,0.00,OVC,,0.16,148.0,WeatherDisplay:10.37,2013-04-12 20:27:00,
2013-04-12 15:32:00,35.3,31.2,29.72,WSW,243,5.2,9.6,85,0.00,OVC,,0.16,156.0,WeatherDisplay:10.37,2013-04-12 20:32:00,
2013-04-12 15:37:00,35.5,31.1,29.72,West,269,5.1,8.4,84,0.00,OVC,,0.16,127.0,WeatherDisplay:10.37,2013-04-12 20:37:00,
2013-04-12 15:42:00,35.6,30.9,29.72,WNW,293,6.6,9.6,83,0.00,OVC,,0.16,139.0,WeatherDisplay:10.37,2013-04-12 20:42:00,
2013-04-12 15:47:00,35.6,30.6,29.72,WSW,256,9.7,14.4,82,0.00,OVC,,0.16,90.0,WeatherDisplay:10.37,2013-04-12 20:47:00,
2013-04-12 15:52:00,35.5,30.2,29.72,West,275,8.1,10.8,81,0.00,OVC,,0.16,60.0,WeatherDisplay:10.37,2013-04-12 20:52:00,
2013-04-12 15:57:00,35.3,30.1,29.72,WNW,287,5.1,7.2,81,0.00,OVC,,0.16,62.0,WeatherDisplay:10.37,2013-04-12 20:57:00,
2013-04-12 16:02:00,35.5,30.2,29.73,NW,325,5.0,7.2,81,0.00,BKN,,0.16,100.0,WeatherDisplay:10.37,2013-04-12 21:02:00,
2013-04-12 16:07:00,35.5,30.2,29.73,West,281,5.6,8.4,81,0.00,BKN,,0.16,90.0,WeatherDisplay:10.37,2013-04-12 21:07:00,
2013-04-12 16:13:00,35.3,30.1,29.73,WNW,285,10.4,13.2,81,0.00,BKN,,0.16,54.0,WeatherDisplay:10.37,2013-04-12 21:13:00,
2013-04-12 16:18:00,35.0,30.1,29.74,WSW,254,8.4,15.0,82,0.00,BKN,,0.16,42.0,WeatherDisplay:10.37,2013-04-12 21:18:00,
2013-04-12 16:23:00,34.9,30.3,29.74,West,273,7.7,9.6,83,0.00,OVC,,0.16,39.0,WeatherDisplay:10.37,2013-04-12 21:23:00,
2013-04-12 16:28:00,34.7,30.1,29.74,WNW,289,5.9,9.6,83,0.00,OVC,,0.16,42.0,WeatherDisplay:10.37,2013-04-12 21:28:00,
2013-04-12 16:33:00,34.6,30.0,29.74,WSW,251,7.8,10.8,83,0.00,OVC,,0.16,37.0,WeatherDisplay:10.37,2013-04-12 21:33:00,
2013-04-12 16:38:00,34.6,30.3,29.74,West,264,5.7,7.2,84,0.00,OVC,,0.16,37.0,WeatherDisplay:10.37,2013-04-12 21:38:00,
2013-04-12 16:43:00,34.6,30.3,29.74,WNW,290,4.2,6.0,84,0.00,OVC,,0.16,40.0,WeatherDisplay:10.37,2013-04-12 21:43:00,
2013-04-12 16:48:00,34.4,29.8,29.74,WSW,258,9.3,10.8,83,0.00,OVC,,0.16,32.0,WeatherDisplay:10.37,2013-04-12 21:48:00,
2013-04-12 16:53:00,34.6,30.0,29.74,West,274,9.1,12.0,83,0.00,OVC,,0.16,32.0,WeatherDisplay:10.37,2013-04-12 21:53:00,
2013-04-12 16:58:00,34.4,29.8,29.74,WSW,255,4.9,11.5,83,0.00,OVC,,0.16,35.0,WeatherDisplay:10.37,2013-04-12 21:58:00,
2013-04-12 17:03:00,34.4,29.5,29.75,West,278,9.3,10.8,82,0.00,OVC,,0.16,33.0,WeatherDisplay:10.37,2013-04-12 22:03:00,
2013-04-12 17:08:00,34.6,29.7,29.75,WSW,247,7.2,10.8,82,0.00,OVC,,0.16,33.0,WeatherDisplay:10.37,2013-04-12 22:08:00,
2013-04-12 17:13:00,34.4,29.5,29.75,West,276,6.6,9.6,82,0.00,OVC,,0.16,40.0,WeatherDisplay:10.37,2013-04-12 22:13:00,
2013-04-12 17:18:00,34.6,29.7,29.75,WNW,284,4.3,9.6,82,0.00,OVC,,0.16,42.0,WeatherDisplay:10.37,2013-04-12 22:18:00,
2013-04-12 17:23:00,34.6,29.7,29.75,WSW,258,5.3,6.9,82,0.00,OVC,,0.16,54.0,WeatherDisplay:10.37,2013-04-12 22:23:00,
2013-04-12 17:28:00,34.6,29.7,29.75,North,349,4.0,4.8,82,0.00,OVC,,0.16,70.0,WeatherDisplay:10.37,2013-04-12 22:28:00,
2013-04-12 17:33:00,34.7,29.5,29.75,WNW,291,3.5,6.0,81,0.00,OVC,,0.16,65.0,WeatherDisplay:10.37,2013-04-12 22:33:00,
2013-04-12 17:38:00,34.7,29.5,29.75,WSW,257,5.9,10.8,81,0.00,OVC,,0.16,44.0,WeatherDisplay:10.37,2013-04-12 22:38:00,
2013-04-12 17:43:00,34.7,29.5,29.75,WNW,288,3.6,5.8,81,0.00,BKN,,0.16,37.0,WeatherDisplay:10.37,2013-04-12 22:43:00,
2013-04-12 17:48:00,34.9,29.7,29.76,West,275,4.2,6.0,81,0.00,BKN,,0.16,26.0,WeatherDisplay:10.37,2013-04-12 22:48:00,
2013-04-12 17:53:00,34.9,29.7,29.76,WNW,287,6.5,7.2,81,0.00,BKN,,0.16,23.0,WeatherDisplay:10.37,2013-04-12 22:53:00,
2013-04-12 17:58:00,34.9,29.7,29.76,WSW,245,8.2,10.8,81,0.00,BKN,,0.16,21.0,WeatherDisplay:10.37,2013-04-12 22:58:00,
2013-04-12 18:03:00,34.9,29.7,29.77,West,276,4.2,6.0,81,0.00,BKN,,0.16,16.0,WeatherDisplay:10.37,2013-04-12 23:03:00,
2013-04-12 18:08:00,34.7,29.5,29.77,WNW,285,1.1,3.6,81,0.00,BKN,,0.16,11.0,WeatherDisplay:10.37,2013-04-12 23:08:00,
2013-04-12 18:13:00,34.7,29.5,29.77,WNW,286,3.5,6.9,81,0.00,BKN,,0.16,11.0,WeatherDisplay:10.37,2013-04-12 23:13:00,
2013-04-12 18:18:00,34.6,29.4,29.77,WNW,300,4.7,6.0,81,0.00,BKN,,0.16,11.0,WeatherDisplay:10.37,2013-04-12 23:18:00,
2013-04-12 18:23:00,34.6,29.4,29.77,WNW,284,4.6,6.0,81,0.00,BKN,,0.16,11.0,WeatherDisplay:10.37,2013-04-12 23:23:00,
2013-04-12 18:28:00,34.4,29.2,29.77,WNW,290,5.8,7.2,81,0.00,BKN,,0.16,9.0,WeatherDisplay:10.37,2013-04-12 23:28:00,
2013-04-12 18:33:00,34.4,29.2,29.78,West,263,3.8,6.0,81,0.00,BKN,,0.16,9.0,WeatherDisplay:10.37,2013-04-12 23:33:00,
2013-04-12 18:38:00,34.4,29.2,29.78,West,263,5.4,6.0,81,0.00,BKN,,0.16,11.0,WeatherDisplay:10.37,2013-04-12 23:38:00,
2013-04-12 18:43:00,34.3,29.1,29.78,West,275,4.3,6.0,81,0.00,SCT,,0.16,12.0,WeatherDisplay:10.37,2013-04-12 23:43:00,
2013-04-12 18:48:00,34.3,29.1,29.78,West,271,4.4,7.2,81,0.00,SCT,,0.16,11.0,WeatherDisplay:10.37,2013-04-12 23:48:00,
2013-04-12 18:53:00,34.3,29.1,29.78,WSW,250,0.0,2.3,81,0.00,SCT,,0.16,7.0,WeatherDisplay:10.37,2013-04-12 23:53:00,
2013-04-12 18:58:00,34.3,29.1,29.78,West,259,4.0,6.9,81,0.00,SCT,,0.16,9.0,WeatherDisplay:10.37,2013-04-12 23:58:00,
2013-04-12 19:03:00,34.3,29.1,29.78,West,277,3.7,4.8,81,0.00,BKN,,0.16,7.0,WeatherDisplay:10.37,2013-04-13 00:03:00,
2013-04-12 19:08:00,34.1,28.9,29.78,WNW,288,1.3,4.8,81,0.00,BKN,,0.16,7.0,WeatherDisplay:10.37,2013-04-13 00:08:00,
2013-04-12 19:13:00,34.1,28.9,29.78,West,263,3.9,5.8,81,0.00,BKN,,0.16,5.0,WeatherDisplay:10.37,2013-04-13 00:13:00,
2013-04-12 19:18:00,34.0,28.8,29.78,West,260,3.2,4.8,81,0.00,BKN,,0.16,0.0,WeatherDisplay:10.37,2013-04-13 00:18:00,
2013-04-12 19:23:00,34.0,29.1,29.78,SW,225,2.1,6.0,82,0.00,BKN,,0.16,0.0,WeatherDisplay:10.37,2013-04-13 00:23:00,
2013-04-12 19:28:00,34.0,29.1,29.78,WSW,248,2.5,8.4,82,0.00,BKN,,0.16,0.0,WeatherDisplay:10.37,2013-04-13 00:28:00,
2013-04-12 19:33:00,33.8,28.9,29.78,WNW,299,1.2,6.0,82,0.00,BKN,,0.16,0.0,WeatherDisplay:10.37,2013-04-13 00:33:00,
2013-04-12 19:38:00,33.8,29.2,29.78,WSW,239,6.9,8.4,83,0.00,BKN,,0.16,0.0,WeatherDisplay:10.37,2013-04-13 00:38:00,
2013-04-12 19:43:00,33.8,29.2,29.78,WSW,244,4.1,4.8,83,0.00,BKN,,0.16,0.0,WeatherDisplay:10.37,2013-04-13 00:43:00,
2013-04-12 19:48:00,33.8,29.2,29.78,West,269,5.1,8.4,83,0.00,BKN,,0.16,0.0,WeatherDisplay:10.37,2013-04-13 00:48:00,
2013-04-12 19:53:00,33.8,29.2,29.78,West,279,6.0,8.4,83,0.00,BKN,,0.16,0.0,WeatherDisplay:10.37,2013-04-13 00:53:00,
2013-04-12 19:58:00,33.8,29.2,29.78,WSW,248,4.5,7.2,83,0.00,BKN,,0.16,0.0,WeatherDisplay:10.37,2013-04-13 00:58:00,
2013-04-12 20:03:00,33.7,29.1,29.78,SW,233,2.8,7.2,83,0.00,SCT,,0.16,0.0,WeatherDisplay:10.37,2013-04-13 01:03:00,
2013-04-12 20:08:00,33.7,28.8,29.78,WSW,252,4.4,7.2,82,0.00,SCT,,0.16,0.0,WeatherDisplay:10.37,2013-04-13 01:08:00,
2013-04-12 20:13:00,33.7,29.1,29.78,WSW,256,1.9,3.6,83,0.00,SCT,,0.16,0.0,WeatherDisplay:10.37,2013-04-13 01:13:00,
2013-04-12 20:18:00,33.5,28.9,29.79,West,269,2.0,3.6,83,0.00,SCT,,0.16,0.0,WeatherDisplay:10.37,2013-04-13 01:18:00,
2013-04-12 20:23:00,33.5,29.2,29.79,SW,235,0.0,1.2,84,0.00,SCT,,0.16,0.0,WeatherDisplay:10.37,2013-04-13 01:23:00,
2013-04-12 20:28:00,33.5,29.2,29.79,West,259,1.6,4.8,84,0.00,SCT,,0.16,0.0,WeatherDisplay:10.37,2013-04-13 01:28:00,
2013-04-12 20:33:00,33.4,29.1,29.79,West,260,0.1,1.2,84,0.00,SCT,,0.16,0.0,WeatherDisplay:10.37,2013-04-13 01:33:00,
2013-04-12 20:38:00,33.4,29.1,29.79,West,263,2.9,6.0,84,0.00,SCT,,0.16,0.0,WeatherDisplay:10.37,2013-04-13 01:38:00,
2013-04-12 20:43:00,33.4,29.1,29.79,West,265,1.1,2.4,84,0.00,BKN,,0.16,0.0,WeatherDisplay:10.37,2013-04-13 01:43:00,
2013-04-12 20:48:00,33.2,28.9,29.79,WSW,245,3.9,6.0,84,0.00,BKN,,0.16,0.0,WeatherDisplay:10.37,2013-04-13 01:48:00,
2013-04-12 20:53:00,33.2,28.9,29.79,WSW,248,6.9,7.2,84,0.00,BKN,,0.16,0.0,WeatherDisplay:10.37,2013-04-13 01:53:00,
2013-04-12 20:58:00,33.2,28.9,29.79,WSW,251,4.3,4.8,84,0.00,BKN,,0.16,0.0,WeatherDisplay:10.37,2013-04-13 01:58:00,
2013-04-12 21:03:00,33.2,29.2,29.80,WSW,256,5.5,7.2,85,0.00,OVC,,0.16,0.0,WeatherDisplay:10.37,2013-04-13 02:03:00,
2013-04-12 21:08:00,33.1,29.1,29.80,West,276,3.0,4.8,85,0.00,OVC,,0.16,0.0,WeatherDisplay:10.37,2013-04-13 02:08:00,
2013-04-12 21:13:00,33.1,29.1,29.80,WSW,250,4.9,6.0,85,0.00,OVC,,0.16,0.0,WeatherDisplay:10.37,2013-04-13 02:13:00,
2013-04-12 21:18:00,33.1,29.1,29.80,West,263,2.2,4.8,85,0.00,OVC,,0.16,0.0,WeatherDisplay:10.37,2013-04-13 02:18:00,
2013-04-12 21:23:00,33.1,29.1,29.80,WSW,246,4.7,6.9,85,0.00,OVC,,0.16,0.0,WeatherDisplay:10.37,2013-04-13 02:23:00,
2013-04-12 21:28:00,33.1,29.1,29.80,West,263,4.1,6.0,85,0.00,OVC,,0.16,0.0,WeatherDisplay:10.37,2013-04-13 02:28:00,
2013-04-12 21:33:00,33.1,29.1,29.80,WSW,248,3.5,6.0,85,0.00,OVC,,0.16,0.0,WeatherDisplay:10.37,2013-04-13 02:33:00,
2013-04-12 21:38:00,32.9,29.2,29.80,WSW,253,4.1,5.8,86,0.00,OVC,,0.16,0.0,WeatherDisplay:10.37,2013-04-13 02:38:00,
2013-04-12 21:43:00,32.9,29.2,29.80,WSW,247,1.8,3.6,86,0.00,OVC,,0.16,0.0,WeatherDisplay:10.37,2013-04-13 02:43:00,
2013-04-12 21:48:00,32.8,29.1,29.80,WSW,248,4.2,5.8,86,0.00,OVC,,0.16,0.0,WeatherDisplay:10.37,2013-04-13 02:48:00,
2013-04-12 21:53:00,32.8,29.1,29.80,WSW,245,2.6,4.8,86,0.00,OVC,,0.16,0.0,WeatherDisplay:10.37,2013-04-13 02:53:00,
2013-04-12 21:58:00,32.8,29.1,29.80,WSW,246,3.5,4.8,86,0.00,OVC,,0.16,0.0,WeatherDisplay:10.37,2013-04-13 02:58:00,
2013-04-12 22:03:00,32.8,29.1,29.81,West,276,6.1,7.2,86,0.00,OVC,,0.16,0.0,WeatherDisplay:10.37,2013-04-13 03:03:00,
2013-04-12 22:08:00,32.8,29.4,29.81,SW,227,4.2,6.0,87,0.00,OVC,,0.16,0.0,WeatherDisplay:10.37,2013-04-13 03:08:00,
2013-04-12 22:13:00,32.8,29.4,29.81,WSW,250,2.7,4.8,87,0.00,OVC,,0.16,0.0,WeatherDisplay:10.37,2013-04-13 03:13:00,
2013-04-12 22:18:00,32.8,29.4,29.81,WSW,244,4.4,6.0,87,0.00,OVC,,0.16,0.0,WeatherDisplay:10.37,2013-04-13 03:18:00,
2013-04-12 22:23:00,32.8,29.4,29.81,West,261,3.6,4.8,87,0.00,-SN,,0.16,0.0,WeatherDisplay:10.37,2013-04-13 03:23:00,
2013-04-12 22:28:00,32.7,29.5,29.81,SW,223,2.7,3.6,88,0.00,-SN,,0.16,0.0,WeatherDisplay:10.37,2013-04-13 03:28:00,
2013-04-12 22:33:00,32.7,29.5,29.81,WSW,257,6.5,8.4,88,0.00,-SN,,0.16,0.0,WeatherDisplay:10.37,2013-04-13 03:33:00,
2013-04-12 22:38:00,32.7,29.5,29.81,WSW,248,3.5,4.8,88,0.00,-SN,,0.16,0.0,WeatherDisplay:10.37,2013-04-13 03:38:00,
2013-04-12 22:43:00,32.8,29.6,29.81,West,265,0.0,1.2,88,0.00,BKN,,0.16,0.0,WeatherDisplay:10.37,2013-04-13 03:43:00,
2013-04-12 22:48:00,32.8,29.4,29.80,WSW,251,4.9,6.0,87,0.00,BKN,,0.16,0.0,WeatherDisplay:10.37,2013-04-13 03:48:00,
2013-04-12 22:53:00,32.8,29.4,29.80,WSW,246,5.6,7.2,87,0.00,BKN,,0.16,0.0,WeatherDisplay:10.37,2013-04-13 03:53:00,
2013-04-12 22:58:00,32.8,29.4,29.80,SW,228,2.8,7.2,87,0.00,BKN,,0.16,0.0,WeatherDisplay:10.37,2013-04-13 03:58:00,
2013-04-12 23:00:00,32.9,29.5,29.81,SW,229,1.0,3.6,87,0.00,BKN,,0.16,0.0,WeatherDisplay:10.37,2013-04-13 04:00:00,
2013-04-12 23:04:00,32.8,29.4,29.81,West,275,5.4,6.0,87,0.00,SCT,,0.16,0.0,WeatherDisplay:10.37,2013-04-13 04:04:00,
2013-04-12 23:09:00,32.9,29.5,29.81,SW,228,4.6,4.8,87,0.00,SCT,,0.16,0.0,WeatherDisplay:10.37,2013-04-13 04:09:00,
2013-04-12 23:14:00,32.8,29.1,29.81,West,268,5.7,7.2,86,0.00,SCT,,0.16,0.0,WeatherDisplay:10.37,2013-04-13 04:14:00,
2013-04-12 23:19:00,32.9,29.2,29.81,WNW,284,2.9,6.0,86,0.00,SCT,,0.16,0.0,WeatherDisplay:10.37,2013-04-13 04:19:00,
2013-04-12 23:24:00,32.9,29.2,29.81,WSW,242,1.8,5.8,86,0.00,-SN,,0.16,0.0,WeatherDisplay:10.37,2013-04-13 04:24:00,
2013-04-12 23:29:00,32.9,29.2,29.81,West,266,4.7,6.9,86,0.00,-SN,,0.16,0.0,WeatherDisplay:10.37,2013-04-13 04:29:00,
2013-04-12 23:34:00,32.9,29.2,29.81,West,267,4.6,6.0,86,0.00,-SN,,0.16,0.0,WeatherDisplay:10.37,2013-04-13 04:34:00,
2013-04-12 23:39:00,32.9,29.2,29.81,WSW,245,0.9,4.6,86,0.00,-SN,,0.16,0.0,WeatherDisplay:10.37,2013-04-13 04:39:00,
2013-04-12 23:44:00,32.9,29.2,29.81,WSW,254,4.0,4.6,86,0.00,BKN,,0.16,0.0,WeatherDisplay:10.37,2013-04-13 04:44:00,
2013-04-12 23:49:00,32.9,29.2,29.80,West,270,3.6,4.8,86,0.00,BKN,,0.16,0.0,WeatherDisplay:10.37,2013-04-13 04:49:00,
2013-04-12 23:54:00,32.9,29.2,29.80,WSW,248,2.4,4.8,86,0.00,BKN,,0.16,0.0,WeatherDisplay:10.37,2013-04-13 04:54:00,
2013-04-12 23:59:00,32.9,29.2,29.80,WSW,258,4.5,6.0,86,0.00,BKN,,0.16,0.0,WeatherDisplay:10.37,2013-04-13 04:59:00,